Tyner, North Carolina
Current Conditions -  °F | °C
As of 4:35 PM on Monday 24 Nov 2014 (Local Time) from KEDE Reporting Station
Overcast Overcast  
Wind Chill: 67°   Ceiling: 4200
Heat Index: 67°   Visibility: 10mi
Dew Point: 65°   Wind: 12mph
Humidity: 96%   Direction: 190°S
Pressure: 29.83"   Gusts: NA
Location:  36.21°N, 76.61°W
Report Text: KEDE 242135Z AUTO 19010KT 10SM BKN042 BKN050 OVC070 19/19 A2983 RMK AO2 T01930186
Loading
Personal Weather Stations






























Interactive Weather Map New forecast layout! Learn more

10-Day Weather Forecast

Advertisements
Track Severe Weather on mobile